createdAt,value
2022-08-19T00:01:53.207Z,100718.03
2022-08-19T00:04:24.385Z,100717.25
2022-08-19T00:06:54.416Z,100720.38
2022-08-19T00:09:24.505Z,100722.38
2022-08-19T00:11:53.870Z,100715.81
2022-08-19T00:14:22.872Z,100715.19
2022-08-19T00:16:52.502Z,100709.88
2022-08-19T00:19:20.676Z,100712.59
2022-08-19T00:21:48.744Z,100722.88
2022-08-19T00:24:18.305Z,100725.03
2022-08-19T00:26:47.570Z,100716.22
2022-08-19T00:29:18.132Z,100708.38
2022-08-19T00:31:46.606Z,100713.94
2022-08-19T00:34:16.403Z,100720.78
2022-08-19T00:36:44.987Z,100723.34
2022-08-19T00:39:14.085Z,100726.03
2022-08-19T00:41:44.123Z,100713.88
2022-08-19T00:44:15.691Z,100705.94
2022-08-19T00:46:55.289Z,100706.34
2022-08-19T00:49:30.070Z,100696.81
2022-08-19T00:52:02.741Z,100693.56
2022-08-19T00:54:32.474Z,100686.81
2022-08-19T00:57:03.916Z,100690.63
2022-08-19T00:59:56.225Z,100701.13
2022-08-19T01:02:20.199Z,100694.41
2022-08-19T01:04:49.036Z,100696.94
2022-08-19T01:07:19.676Z,100692.31
2022-08-19T01:09:48.775Z,100707.41
2022-08-19T01:12:19.640Z,100720.34
2022-08-19T01:14:49.781Z,100713.28
2022-08-19T01:17:18.684Z,100708.38
2022-08-19T01:19:48.731Z,100724.22
2022-08-19T01:22:28.662Z,100719.88
2022-08-19T01:25:02.542Z,100730.00
2022-08-19T01:27:43.849Z,100716.66
2022-08-19T01:30:15.206Z,100711.88
2022-08-19T01:32:44.197Z,100724.38
2022-08-19T01:35:14.198Z,100725.28
2022-08-19T01:37:50.683Z,100732.03
2022-08-19T01:40:22.245Z,100736.56
2022-08-19T01:42:50.635Z,100730.31
2022-08-19T01:45:18.984Z,100727.69
2022-08-19T01:48:01.296Z,100721.28
2022-08-19T01:50:30.875Z,100709.56
2022-08-19T01:53:02.279Z,100722.72
2022-08-19T01:55:41.052Z,100748.00
2022-08-19T01:58:13.429Z,100751.72
2022-08-19T02:00:42.121Z,100748.81
2022-08-19T02:03:12.157Z,100743.09
2022-08-19T02:05:40.678Z,100748.31
2022-08-19T02:08:09.365Z,100713.97
2022-08-19T02:10:41.498Z,100719.25
2022-08-19T02:13:09.447Z,100717.78
2022-08-19T02:15:37.398Z,100713.81
2022-08-19T02:18:06.262Z,100682.97
2022-08-19T02:20:34.864Z,100636.28
2022-08-19T02:23:02.789Z,100608.91
2022-08-19T02:25:30.709Z,100609.50
2022-08-19T02:28:00.035Z,100627.19
2022-08-19T02:30:28.864Z,100632.31
2022-08-19T02:32:56.886Z,100636.63
2022-08-19T02:35:24.890Z,100627.06
2022-08-19T02:38:12.890Z,100621.25
2022-08-19T02:40:40.789Z,100607.50
2022-08-19T02:43:11.071Z,100616.09
2022-08-19T02:45:41.622Z,100616.28
2022-08-19T02:48:14.889Z,100606.63
2022-08-19T02:50:53.797Z,100603.94
2022-08-19T02:53:23.038Z,100616.28
2022-08-19T02:55:51.794Z,100628.50
2022-08-19T02:58:23.992Z,100636.44
2022-08-19T03:00:55.027Z,100639.22
2022-08-19T03:03:23.211Z,100631.19
2022-08-19T03:05:56.524Z,100628.97
2022-08-19T03:08:26.812Z,100632.19
2022-08-19T03:10:55.071Z,100633.13
2022-08-19T03:13:25.281Z,100636.69
2022-08-19T03:15:53.294Z,100639.19
2022-08-19T03:18:23.334Z,100639.72
2022-08-19T03:20:55.455Z,100638.72
2022-08-19T03:23:23.762Z,100625.88
2022-08-19T03:26:03.934Z,100622.91
2022-08-19T03:28:47.714Z,100620.41
2022-08-19T03:31:43.455Z,100624.19
2022-08-19T03:34:13.177Z,100624.59
2022-08-19T03:36:41.781Z,100615.22
2022-08-19T03:39:10.419Z,100616.84
2022-08-19T03:41:44.578Z,100614.38
2022-08-19T03:44:17.860Z,100611.03
2022-08-19T03:46:47.952Z,100618.09
2022-08-19T03:49:18.349Z,100612.84
2022-08-19T03:51:48.667Z,100618.13
2022-08-19T03:54:18.236Z,100623.09
2022-08-19T03:56:47.946Z,100630.22
2022-08-19T03:59:19.791Z,100626.59
2022-08-19T04:01:48.044Z,100624.66
2022-08-19T04:04:15.958Z,100617.53
2022-08-19T04:06:48.178Z,100615.13
2022-08-19T04:09:16.513Z,100614.00
2022-08-19T04:11:47.583Z,100617.94
2022-08-19T04:14:20.002Z,100627.41
2022-08-19T04:16:49.047Z,100615.09
2022-08-19T04:19:18.760Z,100634.09
2022-08-19T04:21:48.797Z,100635.22
2022-08-19T04:24:17.220Z,100640.94
2022-08-19T04:26:45.544Z,100651.94
2022-08-19T04:29:15.829Z,100653.38
2022-08-19T04:31:46.530Z,100647.09
2022-08-19T04:34:17.128Z,100653.44
2022-08-19T04:36:46.597Z,100645.41
2022-08-19T04:39:17.367Z,100640.50
2022-08-19T04:42:02.952Z,100635.94
2022-08-19T04:44:33.325Z,100636.78
2022-08-19T04:47:11.024Z,100640.47
2022-08-19T04:49:40.093Z,100642.38
2022-08-19T04:52:09.404Z,100642.59
2022-08-19T04:54:39.353Z,100650.38
2022-08-19T04:57:10.607Z,100645.94
2022-08-19T04:59:39.555Z,100646.97
2022-08-19T05:02:09.809Z,100643.78
2022-08-19T05:04:40.168Z,100635.34
2022-08-19T05:07:08.957Z,100631.06
2022-08-19T05:09:56.625Z,100631.44
2022-08-19T05:12:29.383Z,100624.41
2022-08-19T05:14:58.754Z,100629.69
2022-08-19T05:17:32.415Z,100626.88
2022-08-19T05:20:22.824Z,100624.94
2022-08-19T05:22:50.911Z,100618.34
2022-08-19T05:25:21.452Z,100610.56
2022-08-19T05:27:49.844Z,100624.00
2022-08-19T05:30:18.906Z,100615.88
2022-08-19T05:33:03.549Z,100619.25
2022-08-19T05:35:34.578Z,100602.09
2022-08-19T05:38:02.810Z,100617.94
2022-08-19T05:40:30.798Z,100618.97
2022-08-19T05:42:58.746Z,100617.44
2022-08-19T05:45:26.665Z,100616.34
2022-08-19T05:47:55.184Z,100607.38
2022-08-19T05:50:24.527Z,100608.41
2022-08-19T05:52:52.542Z,100616.19
2022-08-19T05:55:21.149Z,100610.53
2022-08-19T05:57:49.129Z,100620.06
2022-08-19T06:00:21.412Z,100623.78
2022-08-19T06:02:52.892Z,100620.94
2022-08-19T06:05:21.222Z,100633.38
2022-08-19T06:07:50.585Z,100630.75
2022-08-19T06:10:18.552Z,100643.34
2022-08-19T06:12:46.502Z,100640.53
2022-08-19T06:15:15.641Z,100643.13
2022-08-19T06:17:45.205Z,100638.84
2022-08-19T06:20:16.233Z,100627.72
2022-08-19T06:22:46.431Z,100619.78
2022-08-19T06:25:18.015Z,100626.97
2022-08-19T06:28:13.419Z,100628.13
2022-08-19T06:30:34.324Z,100624.03
2022-08-19T06:33:02.248Z,100630.59
2022-08-19T06:35:30.364Z,100633.31
2022-08-19T06:37:58.496Z,100631.41
2022-08-19T06:40:28.594Z,100640.69
2022-08-19T06:42:57.255Z,100636.22
2022-08-19T06:45:34.428Z,100643.97
2022-08-19T06:48:04.057Z,100647.00
2022-08-19T06:50:31.934Z,100658.75
2022-08-19T06:52:59.836Z,100661.69
2022-08-19T06:55:33.792Z,100662.31
2022-08-19T06:58:04.642Z,100666.97
2022-08-19T07:00:32.773Z,100681.06
2022-08-19T07:03:06.132Z,100677.50
2022-08-19T07:05:40.884Z,100689.00
2022-08-19T07:08:14.230Z,100674.28
2022-08-19T07:10:46.714Z,100676.41
2022-08-19T07:13:14.930Z,100670.59
2022-08-19T07:15:43.400Z,100659.84
2022-08-19T07:18:11.682Z,100660.69
2022-08-19T07:20:40.436Z,100663.25
2022-08-19T07:23:15.879Z,100658.13
2022-08-19T07:25:52.897Z,100653.97
2022-08-19T07:28:24.437Z,100659.59
2022-08-19T07:30:53.438Z,100665.97
2022-08-19T07:33:21.672Z,100676.66
2022-08-19T07:35:50.770Z,100678.38
2022-08-19T07:38:19.118Z,100682.97
2022-08-19T07:40:48.420Z,100685.94
2022-08-19T07:43:17.925Z,100691.59
2022-08-19T07:45:47.930Z,100709.25
2022-08-19T07:48:16.447Z,100702.97
2022-08-19T07:50:44.527Z,100698.75
2022-08-19T07:53:12.884Z,100697.50
2022-08-19T07:55:43.836Z,100694.97
2022-08-19T07:58:15.646Z,100699.41
2022-08-19T08:00:44.495Z,100701.47
2022-08-19T08:03:12.778Z,100711.13
2022-08-19T08:05:57.959Z,100712.84
2022-08-19T08:08:44.189Z,100710.53
2022-08-19T08:11:16.728Z,100714.31
2022-08-19T08:13:46.923Z,100720.59
2022-08-19T08:16:31.029Z,100731.91
2022-08-19T08:18:59.187Z,100738.44
2022-08-19T08:21:27.245Z,100736.38
2022-08-19T08:23:56.686Z,100732.81
2022-08-19T08:26:25.977Z,100737.03
2022-08-19T08:28:55.672Z,100741.88
2022-08-19T08:31:24.445Z,100740.81
2022-08-19T08:33:52.331Z,100747.53
2022-08-19T08:36:20.300Z,100749.00
2022-08-19T08:38:49.098Z,100753.03
2022-08-19T08:41:24.455Z,100746.28
2022-08-19T08:43:55.155Z,100740.81
2022-08-19T08:46:31.014Z,100745.00
2022-08-19T08:49:04.622Z,100759.75
2022-08-19T08:51:35.729Z,100754.50
2022-08-19T08:54:09.907Z,100750.47
2022-08-19T08:56:40.250Z,100755.47
2022-08-19T08:59:14.816Z,100749.31
2022-08-19T09:01:42.873Z,100755.06
2022-08-19T09:04:14.099Z,100758.41
2022-08-19T09:06:52.745Z,100763.72
2022-08-19T09:09:29.442Z,100760.59
2022-08-19T09:12:07.756Z,100759.97
2022-08-19T09:14:50.801Z,100754.91
2022-08-19T09:17:21.960Z,100758.28
2022-08-19T09:19:54.950Z,100760.78
2022-08-19T09:22:25.704Z,100747.34
2022-08-19T09:24:54.434Z,100744.59
2022-08-19T09:27:42.069Z,100725.88
2022-08-19T09:30:18.107Z,100739.06
2022-08-19T09:32:46.525Z,100739.44
2022-08-19T09:35:15.378Z,100731.78
2022-08-19T09:37:44.361Z,100727.56
2022-08-19T09:40:13.835Z,100731.13
2022-08-19T09:42:49.935Z,100736.84
2022-08-19T09:45:22.977Z,100732.19
2022-08-19T09:47:54.145Z,100726.50
2022-08-19T09:50:24.647Z,100724.78
2022-08-19T09:52:57.047Z,100723.47
2022-08-19T09:55:31.466Z,100726.88
2022-08-19T09:58:02.012Z,100731.72
2022-08-19T10:00:32.735Z,100732.81
2022-08-19T10:03:01.159Z,100735.97
2022-08-19T10:05:48.487Z,100738.88
2022-08-19T10:08:17.660Z,100738.72
2022-08-19T10:10:47.035Z,100744.81
2022-08-19T10:13:16.861Z,100739.09
2022-08-19T10:15:47.439Z,100738.41
2022-08-19T10:18:18.715Z,100738.81
2022-08-19T10:20:51.295Z,100720.69
2022-08-19T10:23:20.704Z,100725.28
2022-08-19T10:25:49.781Z,100716.69
2022-08-19T10:28:19.138Z,100724.28
2022-08-19T10:30:49.447Z,100725.16
2022-08-19T10:33:38.175Z,100723.22
2022-08-19T10:36:07.785Z,100724.81
2022-08-19T10:38:35.948Z,100720.41
2022-08-19T10:41:13.189Z,100718.94
2022-08-19T10:43:41.710Z,100724.84
2022-08-19T10:46:16.691Z,100720.44
2022-08-19T10:48:46.380Z,100721.03
2022-08-19T10:51:31.587Z,100716.41
2022-08-19T10:54:00.116Z,100724.22
2022-08-19T10:56:46.302Z,100729.03
2022-08-19T10:59:15.045Z,100721.28
2022-08-19T11:01:46.125Z,100732.59
2022-08-19T11:04:18.314Z,100719.56
2022-08-19T11:06:48.283Z,100733.47
2022-08-19T11:09:17.607Z,100737.88
2022-08-19T11:11:46.097Z,100737.03
2022-08-19T11:14:16.807Z,100741.66
2022-08-19T11:16:47.339Z,100736.19
2022-08-19T11:19:18.006Z,100732.63
2022-08-19T11:21:48.421Z,100752.81
2022-08-19T11:24:21.182Z,100755.53
2022-08-19T11:26:50.827Z,100752.16
2022-08-19T11:29:20.781Z,100740.13
2022-08-19T11:31:51.464Z,100740.81
2022-08-19T11:34:22.212Z,100747.56
2022-08-19T11:36:51.703Z,100750.50
2022-08-19T11:39:23.461Z,100751.13
2022-08-19T11:41:51.572Z,100752.81
2022-08-19T11:44:19.652Z,100749.88
2022-08-19T11:46:48.492Z,100754.06
2022-08-19T11:49:20.721Z,100757.00
2022-08-19T11:51:49.349Z,100757.25
2022-08-19T11:54:18.119Z,100754.72
2022-08-19T11:56:48.717Z,100760.59
2022-08-19T11:59:16.937Z,100762.94
2022-08-19T12:01:44.937Z,100767.13
2022-08-19T12:04:13.411Z,100768.59
2022-08-19T12:06:43.290Z,100777.03
2022-08-19T12:09:12.699Z,100784.56
2022-08-19T12:11:41.493Z,100779.72
2022-08-19T12:14:14.600Z,100779.09
2022-08-19T12:16:49.101Z,100784.16
2022-08-19T12:19:22.402Z,100780.38
2022-08-19T12:21:53.968Z,100789.00
2022-08-19T12:24:24.312Z,100784.56
2022-08-19T12:26:53.978Z,100782.91
2022-08-19T12:29:23.907Z,100787.94
2022-08-19T12:31:52.173Z,100775.13
2022-08-19T12:34:21.029Z,100782.91
2022-08-19T12:36:50.326Z,100787.50
2022-08-19T12:39:19.808Z,100775.91
2022-08-19T12:41:54.795Z,100782.84
2022-08-19T12:44:28.827Z,100786.59
2022-08-19T12:47:00.229Z,100771.13
2022-08-19T12:49:52.112Z,100776.53
2022-08-19T12:52:22.996Z,100777.59
2022-08-19T12:54:53.807Z,100765.06
2022-08-19T12:57:23.734Z,100769.72
2022-08-19T13:00:01.115Z,100778.38
2022-08-19T13:02:29.273Z,100775.91
2022-08-19T13:04:57.790Z,100765.09
2022-08-19T13:07:25.689Z,100762.88
2022-08-19T13:09:54.987Z,100768.94
2022-08-19T13:12:25.270Z,100779.88
2022-08-19T13:14:53.360Z,100790.69
2022-08-19T13:17:21.816Z,100798.47
2022-08-19T13:19:49.899Z,100798.66
2022-08-19T13:22:17.908Z,100790.94
2022-08-19T13:24:47.398Z,100796.00
2022-08-19T13:27:17.347Z,100797.00
2022-08-19T13:30:02.878Z,100785.06
2022-08-19T13:32:49.078Z,100785.50
2022-08-19T13:35:17.599Z,100789.06
2022-08-19T13:37:46.478Z,100789.44
2022-08-19T13:40:19.381Z,100789.97
2022-08-19T13:42:51.869Z,100783.16
2022-08-19T13:45:23.356Z,100788.81
2022-08-19T13:47:58.438Z,100787.78
2022-08-19T13:50:29.685Z,100775.47
2022-08-19T13:52:58.343Z,100774.78
2022-08-19T13:55:27.706Z,100782.22
2022-08-19T13:57:58.908Z,100783.16
2022-08-19T14:00:29.326Z,100772.72
2022-08-19T14:02:59.051Z,100776.47
2022-08-19T14:05:29.641Z,100783.66
2022-08-19T14:07:58.481Z,100769.72
2022-08-19T14:10:27.098Z,100775.88
2022-08-19T14:12:59.155Z,100770.59
2022-08-19T14:15:28.230Z,100772.25
2022-08-19T14:17:56.905Z,100768.19
2022-08-19T14:20:26.020Z,100772.47
2022-08-19T14:22:54.796Z,100765.00
2022-08-19T14:25:24.935Z,100773.63
2022-08-19T14:27:53.511Z,100781.00
2022-08-19T14:30:26.441Z,100779.59
2022-08-19T14:32:55.056Z,100771.72
2022-08-19T14:35:23.896Z,100774.00
2022-08-19T14:37:54.838Z,100790.06
2022-08-19T14:40:26.769Z,100787.00
2022-08-19T14:42:56.702Z,100781.53
2022-08-19T14:45:26.095Z,100782.59
2022-08-19T14:47:54.365Z,100780.47
2022-08-19T14:50:24.715Z,100776.06
2022-08-19T14:53:00.467Z,100779.47
2022-08-19T14:55:28.440Z,100781.16
2022-08-19T14:57:56.402Z,100785.13
2022-08-19T15:00:27.934Z,100781.59
2022-08-19T15:02:56.247Z,100796.28
2022-08-19T15:05:24.444Z,100796.28
2022-08-19T15:07:52.427Z,100804.13
2022-08-19T15:10:20.312Z,100813.59
2022-08-19T15:12:51.755Z,100803.09
2022-08-19T15:15:20.755Z,100814.44
2022-08-19T15:17:50.453Z,100823.72
2022-08-19T15:20:22.071Z,100824.97
2022-08-19T15:22:50.081Z,100827.09
2022-08-19T15:25:21.235Z,100826.88
2022-08-19T15:27:51.101Z,100828.78
2022-08-19T15:30:23.062Z,100830.69
2022-08-19T15:32:55.621Z,100830.47
2022-08-19T15:35:24.641Z,100837.22
2022-08-19T15:37:53.514Z,100834.06
2022-08-19T15:40:22.873Z,100846.25
2022-08-19T15:42:51.598Z,100849.41
2022-08-19T15:45:20.829Z,100854.66
2022-08-19T15:47:49.289Z,100852.81
2022-08-19T15:50:22.197Z,100851.94
2022-08-19T15:52:52.183Z,100863.31
2022-08-19T15:55:34.084Z,100851.28
2022-08-19T15:58:28.425Z,100845.81
2022-08-19T16:01:15.560Z,100845.19
2022-08-19T16:04:01.383Z,100853.56
2022-08-19T16:06:31.490Z,100843.63
2022-08-19T16:09:01.871Z,100848.06
2022-08-19T16:11:32.432Z,100849.72
2022-08-19T16:14:01.538Z,100835.47
2022-08-19T16:16:33.739Z,100836.97
2022-08-19T16:19:04.075Z,100830.81
2022-08-19T16:21:34.351Z,100831.22
2022-08-19T16:24:06.581Z,100827.88
2022-08-19T16:26:35.199Z,100835.63
2022-08-19T16:29:09.096Z,100842.16
2022-08-19T16:31:41.433Z,100849.25
2022-08-19T16:34:09.482Z,100853.19
2022-08-19T16:36:42.033Z,100840.53
2022-08-19T16:39:11.722Z,100845.06
2022-08-19T16:41:40.437Z,100846.75
2022-08-19T16:44:10.284Z,100850.97
2022-08-19T16:46:41.558Z,100857.69
2022-08-19T16:49:12.009Z,100849.97
2022-08-19T16:51:42.472Z,100854.38
2022-08-19T16:54:10.467Z,100851.38
2022-08-19T16:56:38.433Z,100857.28
2022-08-19T16:59:06.612Z,100858.94
2022-08-19T17:01:34.536Z,100862.63
2022-08-19T17:04:02.495Z,100862.22
2022-08-19T17:06:32.052Z,100863.47
2022-08-19T17:09:02.996Z,100852.94
2022-08-19T17:11:32.841Z,100853.72
2022-08-19T17:14:01.854Z,100853.22
2022-08-19T17:16:32.675Z,100849.53
2022-08-19T17:19:03.375Z,100840.63
2022-08-19T17:21:33.315Z,100850.06
2022-08-19T17:24:04.597Z,100848.06
2022-08-19T17:26:33.127Z,100853.50
2022-08-19T17:29:01.439Z,100859.56
2022-08-19T17:31:31.324Z,100856.63
2022-08-19T17:33:59.939Z,100866.16
2022-08-19T17:36:29.621Z,100858.72
2022-08-19T17:38:59.493Z,100868.22
2022-08-19T17:41:33.722Z,100860.72
2022-08-19T17:44:02.273Z,100863.22
2022-08-19T17:46:30.449Z,100863.53
2022-08-19T17:48:59.037Z,100858.16
2022-08-19T17:51:42.119Z,100864.34
2022-08-19T17:54:12.851Z,100866.16
2022-08-19T17:56:42.833Z,100881.59
2022-08-19T17:59:13.725Z,100886.16
2022-08-19T18:01:51.882Z,100882.06
2022-08-19T18:04:22.941Z,100882.56
2022-08-19T18:06:53.077Z,100888.25
2022-08-19T18:09:23.812Z,100886.09
2022-08-19T18:11:55.458Z,100891.31
2022-08-19T18:14:32.936Z,100899.00
2022-08-19T18:17:01.665Z,100905.44
2022-08-19T18:19:41.626Z,100899.50
2022-08-19T18:22:11.799Z,100902.69
2022-08-19T18:24:40.587Z,100907.38
2022-08-19T18:27:10.118Z,100892.44
2022-08-19T18:29:40.104Z,100892.59
2022-08-19T18:32:12.603Z,100908.38
2022-08-19T18:34:41.551Z,100905.63
2022-08-19T18:37:10.543Z,100907.19
2022-08-19T18:39:56.345Z,100909.41
2022-08-19T18:42:43.354Z,100919.59
2022-08-19T18:45:29.079Z,100916.72
2022-08-19T18:48:26.346Z,100919.06
2022-08-19T18:50:57.638Z,100927.38
2022-08-19T18:53:26.283Z,100930.19
2022-08-19T18:55:55.114Z,100930.50
2022-08-19T18:58:26.548Z,100934.78
2022-08-19T19:00:57.320Z,100931.25
2022-08-19T19:03:26.232Z,100939.00
2022-08-19T19:05:54.545Z,100942.13
2022-08-19T19:08:26.696Z,100945.13
2022-08-19T19:10:56.005Z,100945.09
2022-08-19T19:13:26.760Z,100954.59
2022-08-19T19:15:55.484Z,100956.16
2022-08-19T19:18:23.465Z,100967.09
2022-08-19T19:20:51.319Z,100965.34
2022-08-19T19:23:20.570Z,100974.75
2022-08-19T19:25:50.256Z,100975.78
2022-08-19T19:28:25.428Z,100972.16
2022-08-19T19:30:58.435Z,100964.88
2022-08-19T19:33:26.778Z,100967.84
2022-08-19T19:35:54.823Z,100972.34
2022-08-19T19:38:22.777Z,100968.69
2022-08-19T19:40:50.711Z,100977.75
2022-08-19T19:43:19.199Z,100982.69
2022-08-19T19:45:48.979Z,100990.22
2022-08-19T19:48:18.524Z,100995.81
2022-08-19T19:50:53.983Z,100999.13
2022-08-19T19:53:24.198Z,100999.53
2022-08-19T19:55:57.584Z,100991.13
2022-08-19T19:58:28.490Z,100986.31
2022-08-19T20:00:57.273Z,100983.13
2022-08-19T20:03:26.813Z,100985.53
2022-08-19T20:05:54.910Z,100983.84
2022-08-19T20:08:40.293Z,100982.03
2022-08-19T20:11:08.586Z,100987.69
2022-08-19T20:13:39.572Z,100983.97
2022-08-19T20:16:08.050Z,100986.97
2022-08-19T20:18:40.163Z,100990.59
2022-08-19T20:21:08.161Z,100992.16
2022-08-19T20:23:36.297Z,100999.81
2022-08-19T20:26:06.793Z,100984.50
2022-08-19T20:28:40.232Z,100989.03
2022-08-19T20:31:15.029Z,100988.91
2022-08-19T20:33:44.521Z,100973.59
2022-08-19T20:36:12.477Z,100968.66
2022-08-19T20:38:40.411Z,100971.00
2022-08-19T20:41:09.533Z,100972.81
2022-08-19T20:43:37.804Z,100970.50
2022-08-19T20:46:06.035Z,100974.94
2022-08-19T20:48:36.182Z,100976.06
2022-08-19T20:51:05.888Z,100968.47
2022-08-19T20:53:35.044Z,100968.28
2022-08-19T20:56:03.096Z,100975.75
2022-08-19T20:58:31.829Z,100974.38
2022-08-19T21:01:01.343Z,100971.19
2022-08-19T21:03:32.312Z,100961.50
2022-08-19T21:06:00.662Z,100948.00
2022-08-19T21:08:30.050Z,100941.44
2022-08-19T21:10:58.459Z,100952.41
2022-08-19T21:13:26.893Z,100947.81
2022-08-19T21:15:55.129Z,100956.94
2022-08-19T21:18:25.551Z,100947.09
2022-08-19T21:20:54.567Z,100946.25
2022-08-19T21:23:24.726Z,100942.41
2022-08-19T21:25:55.938Z,100953.19
2022-08-19T21:28:34.513Z,100971.56
2022-08-19T21:31:06.254Z,100981.13
2022-08-19T21:33:34.260Z,100997.25
2022-08-19T21:36:03.019Z,101005.81
2022-08-19T21:38:31.239Z,101001.66
2022-08-19T21:41:05.847Z,100998.13
2022-08-19T21:43:34.823Z,100998.06
2022-08-19T21:46:02.913Z,100989.38
2022-08-19T21:48:30.907Z,100986.06
2022-08-19T21:50:58.828Z,100984.38
2022-08-19T21:53:34.083Z,100981.75
2022-08-19T21:56:04.404Z,100988.34
2022-08-19T21:58:33.528Z,100987.19
2022-08-19T22:01:06.057Z,100985.03
2022-08-19T22:03:34.636Z,100982.94
2022-08-19T22:06:02.815Z,100982.56
2022-08-19T22:08:31.626Z,100984.88
2022-08-19T22:11:00.221Z,100985.81
2022-08-19T22:13:33.735Z,100989.56
2022-08-19T22:16:03.925Z,100980.22
2022-08-19T22:18:31.932Z,100970.72
2022-08-19T22:21:00.231Z,100966.97
2022-08-19T22:23:28.176Z,100960.22
2022-08-19T22:25:56.080Z,100955.59
2022-08-19T22:28:27.936Z,100951.81
2022-08-19T22:30:57.507Z,100958.25
2022-08-19T22:33:27.603Z,100962.03
2022-08-19T22:35:55.777Z,100964.19
2022-08-19T22:38:25.254Z,100970.16
2022-08-19T22:40:54.252Z,100982.66
2022-08-19T22:43:26.131Z,100979.56
2022-08-19T22:45:58.057Z,100973.88
2022-08-19T22:48:28.938Z,100975.03
2022-08-19T22:51:15.798Z,100983.44
2022-08-19T22:53:46.535Z,100979.00
2022-08-19T22:56:18.005Z,100972.16
2022-08-19T22:58:49.990Z,100966.72
2022-08-19T23:01:30.107Z,100965.88
2022-08-19T23:03:58.953Z,100953.19
2022-08-19T23:06:33.187Z,100957.78
2022-08-19T23:09:04.819Z,100956.56
2022-08-19T23:11:35.706Z,100968.50
2022-08-19T23:14:09.548Z,100965.50
2022-08-19T23:16:39.391Z,100961.13
2022-08-19T23:19:09.859Z,100972.44
2022-08-19T23:21:38.793Z,100962.22
2022-08-19T23:24:07.382Z,100959.38
2022-08-19T23:26:36.203Z,100969.88
2022-08-19T23:29:22.803Z,100963.66
2022-08-19T23:31:52.350Z,100979.59
2022-08-19T23:34:20.262Z,100976.88
2022-08-19T23:36:48.418Z,100987.31
2022-08-19T23:39:16.417Z,100986.84
2022-08-19T23:41:44.640Z,100975.34
2022-08-19T23:44:14.726Z,100970.84
2022-08-19T23:46:54.561Z,100969.81
2022-08-19T23:49:25.812Z,100956.63
2022-08-19T23:51:55.608Z,100959.28
2022-08-19T23:54:32.042Z,100949.56
2022-08-19T23:57:13.956Z,100951.72
2022-08-19T23:59:42.540Z,100939.97
